Time;durP1;ratioP1;P1;durP2;ratioP2;P2;SDS_P1;SDS_P2;PMS_P1;PMS_P2;Temp;Humidity;BMP_temperature;BMP_pressure;BME280_temperature;BME280_humidity;BME280_pressure;Samples;Min_cycle;Max_cycle;Signal;HPM_P1;HPM_P2
2023/06/12 00:00:36;;;;;;;12.40;7.22;;;16.20;99.90;;;;;;5060257;28;20044;-76
2023/06/12 00:03:02;;;;;;;12.23;7.57;;;16.30;99.90;;;;;;5068675;28;20032;-76
2023/06/12 00:05:28;;;;;;;13.70;7.60;;;16.30;99.90;;;;;;5076775;28;20520;-76
2023/06/12 00:07:56;;;;;;;13.23;8.25;;;16.10;99.90;;;;;;5088907;28;20396;-77
2023/06/12 00:10:23;;;;;;;11.90;7.72;;;16.20;99.90;;;;;;5087765;28;20179;-79
2023/06/12 00:12:48;;;;;;;11.90;7.15;;;16.20;99.90;;;;;;5084252;28;20052;-79
2023/06/12 00:15:14;;;;;;;13.35;7.60;;;16.00;99.90;;;;;;5076803;28;20074;-79
2023/06/12 00:17:40;;;;;;;13.77;8.77;;;15.80;99.90;;;;;;5121565;27;20046;-80
2023/06/12 00:20:07;;;;;;;13.93;7.93;;;15.40;99.90;;;;;;5087491;28;20028;-78
2023/06/12 00:22:36;;;;;;;14.63;8.38;;;15.00;99.90;;;;;;5088109;28;20070;-78
2023/06/12 00:25:02;;;;;;;12.13;8.35;;;14.70;99.90;;;;;;5088709;28;20031;-79
2023/06/12 00:27:27;;;;;;;14.15;8.00;;;14.60;99.90;;;;;;5106933;28;20034;-79
2023/06/12 00:29:53;;;;;;;13.02;8.45;;;14.60;99.90;;;;;;5098097;28;20032;-78
2023/06/12 00:32:18;;;;;;;14.82;8.98;;;14.60;99.90;;;;;;5067844;28;20541;-79
2023/06/12 00:34:44;;;;;;;13.43;8.82;;;14.60;99.90;;;;;;5068592;28;20029;-79
2023/06/12 00:37:12;;;;;;;12.80;8.40;;;14.60;99.90;;;;;;5068855;28;20441;-83
2023/06/12 00:39:38;;;;;;;13.75;8.18;;;14.50;99.90;;;;;;5068609;28;20086;-79
2023/06/12 00:42:05;;;;;;;13.90;8.40;;;14.40;99.90;;;;;;5100777;28;20119;-77
2023/06/12 00:44:31;;;;;;;13.00;8.35;;;14.40;99.90;;;;;;5067557;28;20229;-78
2023/06/12 00:46:57;;;;;;;13.25;8.30;;;14.30;99.90;;;;;;5073897;28;20052;-79
2023/06/12 00:49:22;;;;;;;15.75;8.75;;;14.20;99.90;;;;;;5086303;28;20028;-77
2023/06/12 00:51:48;;;;;;;13.90;8.68;;;14.30;99.90;;;;;;5087525;28;20054;-78
2023/06/12 00:54:14;;;;;;;14.93;9.02;;;14.20;99.90;;;;;;5087189;28;20058;-84
2023/06/12 00:56:40;;;;;;;12.57;8.05;;;14.30;99.90;;;;;;5102444;28;20028;-79
2023/06/12 00:59:06;;;;;;;14.52;8.43;;;14.40;99.90;;;;;;5088561;28;20435;-79
2023/06/12 01:01:31;;;;;;;13.75;8.88;;;14.50;99.90;;;;;;5088167;28;20590;-78
2023/06/12 01:03:58;;;;;;;14.38;8.40;;;14.60;99.90;;;;;;5091935;28;20059;-80
2023/06/12 01:06:36;;;;;;;15.73;8.40;;;14.70;99.90;;;;;;5088858;28;20036;-79
2023/06/12 01:09:26;;;;;;;14.10;8.98;;;14.80;99.90;;;;;;5092600;28;20062;-79
2023/06/12 01:11:52;;;;;;;12.63;8.80;;;14.80;99.90;;;;;;5073798;28;20045;-80
2023/06/12 01:14:18;;;;;;;17.13;8.75;;;14.80;99.90;;;;;;5071685;28;20126;-79
2023/06/12 01:16:45;;;;;;;14.68;9.00;;;14.70;99.90;;;;;;5089351;28;20064;-78
2023/06/12 01:19:13;;;;;;;13.40;8.95;;;14.70;99.90;;;;;;5091353;28;20106;-83
2023/06/12 01:21:40;;;;;;;14.98;8.88;;;14.70;99.90;;;;;;5092016;28;20024;-79
2023/06/12 01:24:38;;;;;;;15.98;8.57;;;14.70;99.90;;;;;;5092642;28;20035;-79
2023/06/12 01:27:36;;;;;;;13.02;8.35;;;14.70;99.90;;;;;;5107301;27;20037;-78
2023/06/12 01:30:27;;;;;;;14.10;8.68;;;14.60;99.90;;;;;;5066545;28;20086;-78
2023/06/12 01:32:56;;;;;;;14.57;8.95;;;14.40;99.90;;;;;;5091906;28;20468;-78
2023/06/12 01:35:24;;;;;;;15.13;8.77;;;14.30;99.90;;;;;;5089155;28;20058;-79
2023/06/12 01:38:09;;;;;;;14.95;8.57;;;14.30;99.90;;;;;;5090864;28;20427;-79
2023/06/12 01:40:38;;;;;;;13.32;8.75;;;14.20;99.90;;;;;;5091526;28;20260;-79
2023/06/12 01:43:04;;;;;;;12.82;8.35;;;14.20;99.90;;;;;;5090794;28;20118;-79
2023/06/12 01:45:31;;;;;;;15.63;8.45;;;14.20;99.90;;;;;;5089677;28;20377;-79
2023/06/12 01:47:57;;;;;;;15.50;9.18;;;14.20;99.90;;;;;;5093193;28;20041;-82
2023/06/12 01:50:23;;;;;;;14.27;8.35;;;14.10;99.90;;;;;;5076537;28;20042;-79
2023/06/12 01:52:49;;;;;;;16.33;9.63;;;14.20;99.90;;;;;;5071584;28;20029;-79
2023/06/12 01:55:19;;;;;;;12.48;8.63;;;14.30;99.90;;;;;;5081380;28;20040;-83
2023/06/12 01:57:44;;;;;;;14.75;8.82;;;14.30;99.90;;;;;;5089202;28;20036;-79
2023/06/12 02:00:11;;;;;;;14.98;8.77;;;14.20;99.90;;;;;;5091342;28;20042;-81
2023/06/12 02:02:39;;;;;;;16.13;9.52;;;14.10;99.90;;;;;;5087962;28;20801;-79
2023/06/12 02:05:06;;;;;;;13.60;8.90;;;13.80;99.90;;;;;;5077060;28;20081;-79
2023/06/12 02:07:32;;;;;;;15.52;8.90;;;13.70;99.90;;;;;;5112096;27;20036;-78
2023/06/12 02:09:57;;;;;;;15.27;8.82;;;13.70;99.90;;;;;;5091181;28;20028;-79
2023/06/12 02:12:23;;;;;;;14.38;9.20;;;13.80;99.90;;;;;;5079191;28;20025;-78
2023/06/12 02:14:50;;;;;;;17.80;9.43;;;13.70;99.90;;;;;;5071081;28;20041;-79
2023/06/12 02:17:18;;;;;;;15.75;9.43;;;13.70;99.90;;;;;;5076944;28;20032;-83
2023/06/12 02:19:46;;;;;;;16.65;9.77;;;13.70;99.90;;;;;;5107141;28;20110;-79
2023/06/12 02:22:11;;;;;;;13.88;8.70;;;13.60;99.90;;;;;;5080323;28;20043;-80
2023/06/12 02:24:39;;;;;;;16.08;9.40;;;13.50;99.90;;;;;;5080661;28;20597;-79
2023/06/12 02:27:05;;;;;;;15.45;9.05;;;13.50;99.90;;;;;;5086874;28;20040;-78
2023/06/12 02:29:31;;;;;;;14.70;9.43;;;13.50;99.90;;;;;;5089612;28;20534;-77
2023/06/12 02:31:56;;;;;;;14.50;9.45;;;13.50;99.90;;;;;;5079416;28;20119;-78
2023/06/12 02:34:22;;;;;;;14.88;9.20;;;13.40;99.90;;;;;;5073226;28;20146;-78
2023/06/12 02:36:48;;;;;;;18.48;9.15;;;13.50;99.90;;;;;;5087530;28;20051;-78
2023/06/12 02:39:14;;;;;;;14.55;9.27;;;13.50;99.90;;;;;;5090888;28;20032;-78
2023/06/12 02:41:41;;;;;;;12.50;8.35;;;13.60;99.90;;;;;;5090072;28;20039;-78
2023/06/12 02:44:07;;;;;;;13.02;8.50;;;13.60;99.90;;;;;;5089376;28;20043;-78
2023/06/12 02:46:33;;;;;;;16.92;9.23;;;13.50;99.90;;;;;;5097289;28;20043;-78
2023/06/12 02:48:59;;;;;;;15.23;9.27;;;13.50;99.90;;;;;;5088474;28;20040;-78
2023/06/12 02:51:25;;;;;;;15.77;9.15;;;13.50;99.90;;;;;;5087568;28;20040;-76
2023/06/12 02:53:50;;;;;;;14.85;8.90;;;13.60;99.90;;;;;;5087613;28;20503;-78
2023/06/12 02:56:16;;;;;;;15.52;9.73;;;13.80;99.90;;;;;;5090339;28;20032;-77
2023/06/12 02:58:41;;;;;;;20.08;9.65;;;14.00;99.90;;;;;;5089900;28;20039;-78
2023/06/12 03:01:07;;;;;;;17.25;9.65;;;14.00;99.90;;;;;;5089474;28;20028;-78
2023/06/12 03:03:35;;;;;;;14.88;9.23;;;14.10;99.90;;;;;;5086868;28;20103;-77
2023/06/12 03:06:01;;;;;;;12.43;8.27;;;14.10;99.90;;;;;;5090274;28;20024;-79
2023/06/12 03:08:27;;;;;;;16.52;9.68;;;14.10;99.90;;;;;;5075158;28;20537;-79
2023/06/12 03:10:53;;;;;;;14.40;9.27;;;14.10;99.90;;;;;;5070165;28;20047;-80
2023/06/12 03:13:18;;;;;;;14.73;9.00;;;14.10;99.90;;;;;;5070017;28;20041;-79
2023/06/12 03:15:44;;;;;;;16.05;9.40;;;14.00;99.90;;;;;;5121357;27;20054;-80
2023/06/12 03:18:10;;;;;;;15.45;9.40;;;14.00;99.90;;;;;;5089228;28;20028;-80
2023/06/12 03:20:35;;;;;;;14.60;9.60;;;13.80;99.90;;;;;;5088234;28;20040;-79
2023/06/12 03:23:01;;;;;;;21.50;9.48;;;13.80;99.90;;;;;;5089892;28;20058;-80
2023/06/12 03:25:27;;;;;;;14.43;9.02;;;13.80;99.90;;;;;;5088549;28;20472;-79
2023/06/12 03:27:53;;;;;;;15.20;9.25;;;13.80;99.90;;;;;;5087609;28;20035;-80
2023/06/12 03:30:19;;;;;;;18.15;9.77;;;13.90;99.90;;;;;;5085901;28;20101;-76
2023/06/12 03:32:45;;;;;;;15.38;9.55;;;13.90;99.90;;;;;;5068816;28;20028;-78
2023/06/12 03:35:12;;;;;;;17.75;9.77;;;14.00;99.90;;;;;;5083075;28;20040;-76
2023/06/12 03:37:37;;;;;;;16.05;9.55;;;14.00;99.90;;;;;;5078352;28;20028;-77
2023/06/12 03:40:04;;;;;;;16.75;9.25;;;14.10;99.90;;;;;;5104323;28;20084;-77
2023/06/12 03:42:30;;;;;;;16.33;9.75;;;14.20;99.90;;;;;;5087438;28;20667;-78
2023/06/12 03:44:56;;;;;;;16.50;8.77;;;14.20;99.90;;;;;;5097526;28;20034;-78
2023/06/12 03:47:22;;;;;;;15.40;8.88;;;14.40;99.90;;;;;;5100966;27;20055;-76
2023/06/12 03:49:47;;;;;;;17.27;10.05;;;14.50;99.90;;;;;;5072625;28;20032;-77
2023/06/12 03:52:13;;;;;;;14.77;9.57;;;14.60;99.90;;;;;;5069432;28;20373;-77
2023/06/12 03:54:39;;;;;;;16.35;9.60;;;14.70;99.90;;;;;;5082685;28;20516;-77
2023/06/12 03:57:06;;;;;;;15.77;9.63;;;14.80;99.90;;;;;;5105126;28;20111;-78
2023/06/12 03:59:32;;;;;;;14.95;8.52;;;14.80;99.90;;;;;;5079105;28;20036;-78
2023/06/12 04:01:59;;;;;;;16.52;9.48;;;14.80;99.90;;;;;;5100575;28;20036;-77
2023/06/12 04:04:25;;;;;;;15.15;9.20;;;14.80;99.90;;;;;;5080511;28;20040;-76
2023/06/12 04:06:52;;;;;;;15.73;9.48;;;14.90;99.90;;;;;;5084775;28;20063;-77
2023/06/12 04:09:18;;;;;;;15.45;9.05;;;14.90;99.90;;;;;;5068846;28;20025;-78
2023/06/12 04:11:44;;;;;;;14.75;9.45;;;14.80;99.90;;;;;;5092620;28;20158;-78
2023/06/12 04:14:10;;;;;;;15.27;9.57;;;14.80;99.90;;;;;;5102346;28;20028;-77
2023/06/12 04:16:35;;;;;;;15.70;10.07;;;14.80;99.90;;;;;;5106629;28;20035;-77
2023/06/12 04:19:05;;;;;;;15.95;9.40;;;14.80;99.90;;;;;;5088148;28;20400;-78
2023/06/12 04:21:35;;;;;;;16.15;10.38;;;14.90;99.90;;;;;;5088021;28;20036;-77
2023/06/12 04:24:02;;;;;;;;;;;14.90;99.90;;;;;;5092774;28;20147;-77
2023/06/12 04:26:28;;;;;;;17.48;9.82;;;14.90;99.90;;;;;;5086621;28;20364;-78
2023/06/12 04:28:54;;;;;;;22.20;10.23;;;14.90;99.90;;;;;;5087983;28;20103;-78
2023/06/12 04:31:21;;;;;;;15.35;10.35;;;14.90;99.90;;;;;;5108384;28;20144;-78
2023/06/12 04:33:51;;;;;;;17.33;10.70;;;14.90;99.90;;;;;;5100932;28;20085;-77
2023/06/12 04:36:17;;;;;;;15.80;10.18;;;14.80;99.90;;;;;;5095160;28;20036;-77
2023/06/12 04:38:43;;;;;;;19.60;10.27;;;14.80;99.90;;;;;;5068991;28;20024;-77
2023/06/12 04:41:10;;;;;;;19.10;11.18;;;14.90;99.90;;;;;;5108994;28;20043;-77
2023/06/12 04:43:36;;;;;;;18.48;10.50;;;15.00;99.90;;;;;;5104549;28;20536;-77
2023/06/12 04:46:02;;;;;;;17.48;10.10;;;15.00;99.90;;;;;;5106376;28;20404;-77
2023/06/12 04:48:28;;;;;;;19.70;10.93;;;15.10;99.90;;;;;;5083477;28;20056;-77
2023/06/12 04:50:54;;;;;;;17.25;10.40;;;15.20;99.90;;;;;;5068094;28;20091;-78
2023/06/12 04:53:27;;;;;;;19.50;11.18;;;15.20;99.90;;;;;;5071987;28;20020;-77
2023/06/12 04:55:54;;;;;;;16.85;10.50;;;15.40;99.90;;;;;;5088499;28;20028;-77
2023/06/12 04:58:20;;;;;;;20.52;11.05;;;15.60;99.90;;;;;;5084101;28;20031;-76
2023/06/12 05:00:47;;;;;;;20.35;11.05;;;15.80;99.90;;;;;;5067239;28;20025;-76
2023/06/12 05:03:17;;;;;;;19.40;10.70;;;15.90;99.90;;;;;;5071026;28;20012;-77
2023/06/12 05:05:45;;;;;;;23.10;11.38;;;16.10;99.90;;;;;;5107526;28;20829;-77
2023/06/12 05:08:12;;;;;;;17.00;10.48;;;16.30;99.90;;;;;;5080913;28;20028;-77
2023/06/12 05:10:37;;;;;;;18.33;11.05;;;16.50;99.90;;;;;;5087518;28;20035;-78
2023/06/12 05:13:03;;;;;;;16.20;10.55;;;16.70;99.90;;;;;;5087765;28;20028;-77
2023/06/12 05:15:29;;;;;;;14.80;10.05;;;16.80;99.90;;;;;;5107871;28;20066;-76
2023/06/12 05:17:55;;;;;;;15.93;10.60;;;16.90;99.90;;;;;;5095306;28;20036;-75
2023/06/12 05:20:21;;;;;;;18.75;10.27;;;17.00;99.90;;;;;;5090659;28;20078;-76
2023/06/12 05:22:46;;;;;;;25.75;11.15;;;17.10;99.90;;;;;;5107787;28;20024;-77
2023/06/12 05:25:13;;;;;;;18.60;11.10;;;17.10;99.90;;;;;;5067841;28;20021;-76
2023/06/12 05:27:39;;;;;;;17.20;11.40;;;17.30;99.90;;;;;;5066726;28;20025;-76
2023/06/12 05:30:06;;;;;;;15.63;10.43;;;17.30;99.90;;;;;;5068159;28;20040;-76
2023/06/12 05:32:32;;;;;;;20.30;11.23;;;17.30;99.90;;;;;;5066241;28;20051;-76
2023/06/12 05:34:57;;;;;;;23.63;11.85;;;17.50;99.90;;;;;;5067890;28;20024;-75
2023/06/12 05:37:23;;;;;;;16.88;11.18;;;17.60;99.90;;;;;;5074559;28;20030;-75
2023/06/12 05:39:49;;;;;;;17.05;11.20;;;17.60;99.90;;;;;;5073655;28;20029;-75
2023/06/12 05:42:15;;;;;;;17.63;10.75;;;17.70;99.90;;;;;;5085725;28;20063;-76
2023/06/12 05:44:41;;;;;;;20.17;10.65;;;17.70;99.90;;;;;;5085422;28;20051;-76
2023/06/12 05:47:08;;;;;;;18.38;10.73;;;17.80;99.90;;;;;;5087811;28;20056;-75
2023/06/12 05:49:33;;;;;;;18.05;10.43;;;17.80;99.90;;;;;;5090454;28;20035;-75
2023/06/12 05:51:59;;;;;;;17.23;11.15;;;18.00;99.90;;;;;;5091709;28;20036;-76
2023/06/12 05:54:25;;;;;;;18.10;10.32;;;18.20;99.90;;;;;;5092025;28;20024;-76
2023/06/12 05:56:51;;;;;;;16.63;10.02;;;18.40;99.90;;;;;;5091030;28;20441;-76
2023/06/12 05:59:16;;;;;;;18.00;10.82;;;18.60;99.90;;;;;;5100969;28;20391;-77
2023/06/12 06:01:43;;;;;;;18.30;9.93;;;18.70;99.90;;;;;;5110923;28;20035;-76
2023/06/12 06:04:11;;;;;;;26.13;10.68;;;18.80;99.90;;;;;;5102108;28;20581;-76
2023/06/12 06:06:40;;;;;;;17.15;10.88;;;18.80;99.90;;;;;;5109690;28;20027;-75
2023/06/12 06:09:07;;;;;;;17.02;10.75;;;18.80;99.90;;;;;;5111960;28;20031;-75
2023/06/12 06:11:33;;;;;;;17.65;9.88;;;18.90;99.90;;;;;;5098235;28;20392;-77
2023/06/12 06:13:59;;;;;;;15.13;10.82;;;19.20;99.90;;;;;;5091407;28;20026;-78
2023/06/12 06:16:25;;;;;;;14.77;10.38;;;19.40;99.90;;;;;;5090919;28;20036;-77
2023/06/12 06:18:51;;;;;;;15.95;10.27;;;19.40;99.90;;;;;;5090405;28;20032;-78
2023/06/12 06:21:17;;;;;;;16.15;10.73;;;19.50;99.90;;;;;;5089812;28;20388;-77
2023/06/12 06:23:42;;;;;;;19.05;10.40;;;19.60;99.90;;;;;;5090600;28;20032;-77
2023/06/12 06:26:09;;;;;;;22.58;10.60;;;19.70;99.90;;;;;;5089779;28;20491;-77
2023/06/12 06:28:35;;;;;;;22.20;11.18;;;19.90;99.90;;;;;;5091779;28;20035;-77
2023/06/12 06:31:03;;;;;;;18.25;10.90;;;20.00;99.90;;;;;;5070700;28;20036;-78
2023/06/12 06:33:29;;;;;;;19.02;10.20;;;20.10;99.90;;;;;;5081624;28;20020;-77
2023/06/12 06:35:55;;;;;;;15.98;10.68;;;20.30;99.90;;;;;;5108232;28;20039;-77
2023/06/12 06:38:24;;;;;;;18.58;10.05;;;20.30;99.90;;;;;;5111293;28;20033;-77
2023/06/12 06:40:50;;;;;;;14.68;10.00;;;20.30;99.90;;;;;;5081521;28;20021;-77
2023/06/12 06:43:16;;;;;;;16.48;10.40;;;20.40;99.90;;;;;;5086079;28;20047;-77
2023/06/12 06:45:41;;;;;;;17.45;10.93;;;20.60;99.90;;;;;;5093147;28;20662;-77
2023/06/12 06:48:08;;;;;;;15.15;9.98;;;20.80;99.90;;;;;;5090263;28;20032;-76
2023/06/12 06:50:34;;;;;;;15.52;10.32;;;20.90;99.90;;;;;;5089666;28;20142;-76
2023/06/12 06:53:02;;;;;;;15.25;10.18;;;21.10;99.90;;;;;;5090060;28;20107;-77
2023/06/12 06:55:28;;;;;;;21.02;10.40;;;21.20;99.90;;;;;;5090572;28;20024;-77
2023/06/12 06:57:54;;;;;;;15.90;9.80;;;21.30;99.90;;;;;;5089145;28;20872;-77
2023/06/12 07:00:23;;;;;;;16.42;10.10;;;21.30;99.90;;;;;;5087004;28;20118;-76
2023/06/12 07:02:49;;;;;;;13.52;9.77;;;21.50;99.90;;;;;;5101015;28;20023;-77
2023/06/12 07:05:15;;;;;;;15.13;9.38;;;21.40;99.90;;;;;;5101028;28;20430;-77
2023/06/12 07:07:43;;;;;;;16.63;9.70;;;21.50;99.90;;;;;;5077758;28;20035;-76
2023/06/12 07:10:09;;;;;;;18.42;8.90;;;21.60;99.90;;;;;;5090651;28;20487;-77
2023/06/12 07:12:35;;;;;;;18.90;9.90;;;21.80;99.90;;;;;;5108513;28;20028;-76
2023/06/12 07:15:01;;;;;;;13.77;9.15;;;22.00;99.90;;;;;;5103136;28;20042;-77
2023/06/12 07:17:26;;;;;;;18.85;9.15;;;22.10;99.90;;;;;;5102890;28;20456;-76
2023/06/12 07:19:52;;;;;;;17.17;9.02;;;22.20;99.90;;;;;;5088916;28;20032;-77
2023/06/12 07:22:18;;;;;;;15.25;9.70;;;22.30;99.90;;;;;;5090007;28;20020;-77
2023/06/12 07:24:43;;;;;;;15.93;9.20;;;22.30;99.90;;;;;;5088822;28;20027;-76
2023/06/12 07:27:10;;;;;;;14.45;9.70;;;22.30;99.90;;;;;;5088475;28;20028;-77
2023/06/12 07:29:36;;;;;;;13.77;9.93;;;22.10;99.90;;;;;;5089099;28;20056;-76
2023/06/12 07:32:01;;;;;;;14.23;9.45;;;22.20;99.90;;;;;;5089483;28;20098;-76
2023/06/12 07:34:27;;;;;;;11.90;8.50;;;22.20;99.50;;;;;;5090026;28;20032;-76
2023/06/12 07:36:52;;;;;;;12.27;9.07;;;22.20;99.30;;;;;;5088841;28;20480;-77
2023/06/12 07:39:18;;;;;;;21.60;9.32;;;22.30;99.90;;;;;;5089695;28;20027;-77
2023/06/12 07:41:44;;;;;;;12.07;9.07;;;22.40;99.40;;;;;;5088950;28;20036;-79
2023/06/12 07:44:10;;;;;;;17.02;9.43;;;22.40;99.10;;;;;;5095877;28;20036;-76
2023/06/12 07:46:36;;;;;;;17.95;8.98;;;22.40;98.70;;;;;;5104871;28;20499;-76
2023/06/12 07:49:02;;;;;;;14.57;8.48;;;22.60;98.70;;;;;;5089542;28;20718;-76
2023/06/12 07:51:28;;;;;;;14.93;9.05;;;22.50;96.70;;;;;;5089454;28;20070;-77
2023/06/12 07:53:53;;;;;;;11.45;8.88;;;22.60;97.40;;;;;;5088890;28;20529;-76
2023/06/12 07:56:19;;;;;;;15.18;9.68;;;22.70;97.80;;;;;;5089438;28;20032;-77
2023/06/12 07:58:48;;;;;;;12.57;9.05;;;22.80;98.40;;;;;;5088382;28;20043;-76
2023/06/12 08:01:14;;;;;;;15.60;10.10;;;22.90;98.50;;;;;;5088001;28;20067;-76
2023/06/12 08:03:39;;;;;;;19.10;10.07;;;22.80;97.80;;;;;;5088379;28;20486;-77
2023/06/12 08:06:18;;;;;;;15.02;9.93;;;22.80;98.10;;;;;;5089044;28;20103;-77
2023/06/12 08:08:47;;;;;;;14.23;9.48;;;22.80;99.10;;;;;;5088173;28;20107;-77
2023/06/12 08:11:14;;;;;;;19.35;9.63;;;23.20;98.30;;;;;;5088874;28;20040;-77
2023/06/12 08:13:40;;;;;;;15.27;9.73;;;23.10;97.40;;;;;;5096517;28;20038;-79
2023/06/12 08:16:07;;;;;;;15.38;8.90;;;23.20;97.00;;;;;;5105653;28;20365;-76
2023/06/12 08:18:32;;;;;;;12.20;8.75;;;23.20;96.10;;;;;;5092174;28;20056;-77
2023/06/12 08:20:58;;;;;;;18.23;8.95;;;23.10;93.80;;;;;;5088213;28;20062;-75
2023/06/12 08:23:24;;;;;;;16.73;8.80;;;22.80;94.60;;;;;;5089028;28;20028;-75
2023/06/12 08:25:50;;;;;;;14.55;9.20;;;22.80;95.40;;;;;;5087951;28;20040;-75
2023/06/12 08:28:16;;;;;;;15.02;8.63;;;22.80;94.90;;;;;;5089354;28;20070;-75
2023/06/12 08:30:42;;;;;;;13.07;8.40;;;22.90;94.30;;;;;;5105428;28;20138;-75
2023/06/12 08:33:08;;;;;;;14.60;8.48;;;23.10;92.70;;;;;;5108002;28;20032;-77
2023/06/12 08:35:35;;;;;;;11.40;7.63;;;23.30;91.00;;;;;;5109099;28;20062;-76
2023/06/12 08:38:01;;;;;;;16.27;8.32;;;23.30;90.30;;;;;;5108400;28;20041;-76
2023/06/12 08:40:27;;;;;;;18.90;7.78;;;23.40;90.20;;;;;;5106717;28;20035;-75
2023/06/12 08:42:52;;;;;;;13.00;7.78;;;23.50;90.50;;;;;;5106895;28;20031;-75
2023/06/12 08:45:25;;;;;;;14.38;7.90;;;23.60;90.40;;;;;;5097818;28;20084;-75
2023/06/12 08:47:52;;;;;;;14.43;8.00;;;23.80;89.70;;;;;;5087733;28;20048;-75
2023/06/12 08:50:19;;;;;;;13.27;8.07;;;23.90;84.90;;;;;;5088701;28;20024;-75
2023/06/12 08:52:51;;;;;;;12.55;8.68;;;24.00;87.30;;;;;;5087912;28;20028;-75
2023/06/12 08:55:18;;;;;;;11.32;8.07;;;24.10;86.40;;;;;;5088599;28;20070;-75
2023/06/12 08:57:44;;;;;;;11.88;7.82;;;24.20;86.20;;;;;;5087701;28;20456;-76
2023/06/12 09:00:13;;;;;;;12.63;7.80;;;24.30;87.10;;;;;;5088554;28;20093;-75
2023/06/12 09:03:06;;;;;;;12.48;8.07;;;24.50;86.30;;;;;;5087871;28;20523;-75
2023/06/12 09:05:37;;;;;;;12.73;7.90;;;24.60;85.90;;;;;;5086348;28;20055;-75
2023/06/12 09:08:04;;;;;;;12.00;8.00;;;24.40;83.50;;;;;;5087977;28;20050;-76
2023/06/12 09:10:31;;;;;;;8.93;7.03;;;24.10;81.70;;;;;;5098515;28;20055;-76
2023/06/12 09:12:57;;;;;;;18.52;7.90;;;23.90;79.10;;;;;;5105543;28;20897;-74
2023/06/12 09:15:23;;;;;;;13.30;7.50;;;23.80;78.80;;;;;;5107879;28;20058;-74
2023/06/12 09:17:50;;;;;;;13.05;7.05;;;23.70;80.90;;;;;;5096942;28;20082;-74
2023/06/12 09:20:26;;;;;;;10.52;7.30;;;24.10;78.80;;;;;;5088527;28;20036;-74
2023/06/12 09:22:52;;;;;;;11.15;7.30;;;24.20;79.00;;;;;;5088466;28;20048;-76
2023/06/12 09:25:21;;;;;;;12.77;7.47;;;24.30;76.50;;;;;;5092384;28;20427;-74
2023/06/12 09:27:47;;;;;;;11.32;7.25;;;24.40;74.80;;;;;;5091429;28;20028;-75
2023/06/12 09:30:13;;;;;;;13.85;7.28;;;24.30;73.40;;;;;;5092093;28;20092;-75
2023/06/12 09:32:44;;;;;;;17.55;7.30;;;24.20;76.00;;;;;;5090068;28;20024;-74
2023/06/12 09:35:11;;;;;;;11.30;6.90;;;24.20;75.60;;;;;;5092113;28;20080;-73
2023/06/12 09:37:38;;;;;;;13.20;7.47;;;24.20;75.30;;;;;;5092089;28;20028;-74
2023/06/12 09:40:12;;;;;;;12.20;7.10;;;24.00;75.90;;;;;;5091660;28;20094;-74
2023/06/12 09:42:38;;;;;;;11.77;7.35;;;24.20;76.50;;;;;;5108332;28;20035;-74
2023/06/12 09:45:30;;;;;;;16.08;7.03;;;24.40;74.80;;;;;;5111556;28;20039;-74
2023/06/12 09:47:56;;;;;;;20.38;7.63;;;24.70;75.90;;;;;;5095931;28;20568;-75
2023/06/12 09:50:23;;;;;;;13.23;7.40;;;24.80;73.40;;;;;;5091671;28;20123;-74
2023/06/12 09:52:49;;;;;;;9.30;6.95;;;24.90;75.30;;;;;;5090990;28;20057;-77
2023/06/12 09:55:18;;;;;;;13.95;7.20;;;24.70;73.70;;;;;;5091844;28;20063;-77
2023/06/12 09:57:50;;;;;;;15.97;7.27;;;24.90;76.70;;;;;;5090940;28;20031;-77
2023/06/12 10:00:16;;;;;;;9.75;6.68;;;24.70;73.50;;;;;;5091498;28;20115;-77
2023/06/12 10:02:50;;;;;;;11.00;6.60;;;24.80;68.40;;;;;;5090730;28;20116;-77
2023/06/12 10:05:35;;;;;;;11.43;6.43;;;25.00;70.00;;;;;;5091580;28;20035;-76
2023/06/12 10:08:03;;;;;;;9.13;6.65;;;25.20;69.30;;;;;;5090556;28;20028;-74
2023/06/12 10:10:36;;;;;;;10.60;7.40;;;25.10;69.60;;;;;;5090338;28;20455;-76
2023/06/12 10:13:03;;;;;;;12.77;7.30;;;25.20;70.30;;;;;;5070478;28;20728;-75
2023/06/12 10:15:32;;;;;;;11.23;7.03;;;25.20;68.90;;;;;;5071074;28;20052;-75
2023/06/12 10:17:58;;;;;;;12.43;6.47;;;25.20;68.60;;;;;;5082194;28;20032;-77
2023/06/12 10:20:24;;;;;;;13.55;7.28;;;25.20;68.20;;;;;;5091016;28;20384;-77
2023/06/12 10:22:54;;;;;;;10.38;7.38;;;25.20;68.90;;;;;;5090432;28;20028;-77
2023/06/12 10:25:20;;;;;;;11.20;7.05;;;25.10;68.90;;;;;;5100236;28;20036;-77
2023/06/12 10:27:47;;;;;;;11.25;6.60;;;24.90;70.70;;;;;;5108045;28;20127;-75
2023/06/12 10:30:16;;;;;;;10.75;6.90;;;25.20;68.30;;;;;;5111233;28;20027;-76
2023/06/12 10:32:45;;;;;;;15.53;7.03;;;25.50;67.10;;;;;;5111046;28;20036;-77
2023/06/12 10:35:11;;;;;;;12.70;6.50;;;25.60;68.60;;;;;;5110878;28;20722;-78
2023/06/12 10:37:46;;;;;;;10.80;7.13;;;25.80;70.30;;;;;;5111196;28;20024;-77
2023/06/12 10:40:18;;;;;;;10.52;7.35;;;26.20;64.60;;;;;;5111312;28;20032;-77
2023/06/12 10:42:53;;;;;;;13.10;7.00;;;26.10;66.20;;;;;;5103042;28;20020;-77
2023/06/12 10:45:29;;;;;;;11.27;7.15;;;26.10;66.50;;;;;;5091005;28;20699;-77
2023/06/12 10:48:02;;;;;;;11.95;6.97;;;26.40;64.30;;;;;;5089787;28;20059;-75
2023/06/12 10:50:28;;;;;;;11.52;7.18;;;26.00;62.90;;;;;;5098826;28;20078;-76
2023/06/12 10:52:55;;;;;;;12.27;7.13;;;25.80;63.50;;;;;;5110216;28;20529;-76
2023/06/12 10:55:22;;;;;;;10.88;6.88;;;25.70;63.30;;;;;;5110973;28;20031;-75
2023/06/12 10:57:52;;;;;;;9.52;7.10;;;26.00;64.10;;;;;;5110071;28;20084;-76
2023/06/12 11:00:20;;;;;;;10.50;7.35;;;26.20;62.60;;;;;;5110925;28;20047;-77
2023/06/12 11:02:53;;;;;;;11.02;7.65;;;26.10;61.70;;;;;;5110290;28;20046;-77
2023/06/12 11:05:19;;;;;;;11.40;7.25;;;26.20;63.50;;;;;;5110709;28;20447;-75
2023/06/12 11:07:47;;;;;;;15.52;7.35;;;26.40;61.40;;;;;;5110478;28;20032;-76
2023/06/12 11:10:13;;;;;;;10.23;7.30;;;26.60;63.60;;;;;;5110492;28;20024;-76
2023/06/12 11:12:49;;;;;;;13.43;7.63;;;26.60;62.50;;;;;;5109180;28;20135;-76
2023/06/12 11:15:15;;;;;;;10.32;7.82;;;26.40;63.00;;;;;;5110589;28;20134;-74
2023/06/12 11:17:42;;;;;;;15.50;7.63;;;26.20;60.90;;;;;;5100393;28;20161;-76
2023/06/12 11:20:09;;;;;;;21.40;7.53;;;26.10;63.80;;;;;;5091401;28;20337;-76
2023/06/12 11:22:35;;;;;;;12.10;6.80;;;26.00;62.60;;;;;;5110311;28;20368;-76
2023/06/12 11:25:05;;;;;;;11.13;6.95;;;26.20;60.90;;;;;;5109461;27;20039;-76
2023/06/12 11:27:36;;;;;;;11.93;6.72;;;26.40;62.30;;;;;;5110041;28;20475;-76
2023/06/12 11:30:28;;;;;;;10.50;7.22;;;26.70;59.70;;;;;;5109331;28;20035;-76
2023/06/12 11:32:53;;;;;;;8.77;6.97;;;26.90;60.80;;;;;;5087073;28;20518;-76
2023/06/12 11:35:19;;;;;;;12.75;7.03;;;26.70;61.70;;;;;;5100212;28;20032;-76
2023/06/12 11:37:45;;;;;;;15.15;6.43;;;26.30;61.00;;;;;;5076720;28;20029;-75
2023/06/12 11:40:12;;;;;;;10.13;7.38;;;26.50;62.10;;;;;;5082428;28;20035;-76
2023/06/12 11:42:41;;;;;;;14.68;7.70;;;26.70;60.60;;;;;;5089596;28;20072;-76
2023/06/12 11:45:08;;;;;;;10.90;7.20;;;26.70;59.30;;;;;;5121054;27;20058;-75
2023/06/12 11:47:36;;;;;;;12.43;7.22;;;26.60;59.40;;;;;;5088771;28;20060;-76
2023/06/12 11:50:04;;;;;;;9.80;7.07;;;26.40;59.70;;;;;;5092971;28;20028;-77
2023/06/12 11:52:30;;;;;;;10.98;7.75;;;26.30;59.90;;;;;;5097643;28;20161;-75
2023/06/12 11:55:01;;;;;;;9.88;6.70;;;26.40;61.30;;;;;;5088641;28;20106;-75
2023/06/12 11:57:27;;;;;;;10.25;6.68;;;26.70;60.40;;;;;;5089136;28;20181;-75
2023/06/12 11:59:56;;;;;;;9.80;6.88;;;26.90;59.60;;;;;;5088463;28;20469;-76
2023/06/12 12:02:33;;;;;;;11.80;7.27;;;27.40;59.80;;;;;;5089024;28;20461;-74
2023/06/12 12:05:03;;;;;;;11.70;6.70;;;26.70;57.80;;;;;;5088713;28;20652;-76
2023/06/12 12:07:29;;;;;;;;;;;26.40;58.40;;;;;;5089717;28;20020;-76
2023/06/12 12:10:07;;;;;;;9.60;7.00;;;26.60;58.10;;;;;;5087479;28;19918;-75
2023/06/12 12:12:49;;;;;;;10.95;7.28;;;27.00;57.40;;;;;;5088841;28;20130;-76
2023/06/12 12:15:22;;;;;;;9.77;7.15;;;27.00;58.90;;;;;;5087372;28;20055;-76
2023/06/12 12:17:48;;;;;;;13.90;7.07;;;27.40;58.20;;;;;;5086748;28;20105;-76
2023/06/12 12:20:20;;;;;;;10.10;6.60;;;27.50;57.20;;;;;;5086031;28;20020;-74
2023/06/12 12:22:48;;;;;;;14.63;7.70;;;27.30;56.80;;;;;;5081506;28;20032;-74
2023/06/12 12:25:18;;;;;;;10.50;7.05;;;27.30;57.40;;;;;;5078431;28;20150;-74
2023/06/12 12:27:45;;;;;;;9.80;6.65;;;27.50;59.70;;;;;;5078916;28;20032;-74
2023/06/12 12:30:14;;;;;;;13.90;7.22;;;28.00;57.80;;;;;;5075977;28;20034;-74
2023/06/12 12:32:41;;;;;;;9.38;6.97;;;28.50;54.70;;;;;;5077243;28;20583;-75
2023/06/12 12:35:07;;;;;;;14.60;7.35;;;27.80;54.00;;;;;;5076461;28;20063;-73
2023/06/12 12:37:34;;;;;;;12.82;7.43;;;27.00;55.50;;;;;;5076977;28;20036;-74